createdAt,value
2018-02-03T00:00:46.879Z,6.7
2018-02-03T00:01:56.919Z,6.73
2018-02-03T00:03:06.972Z,6.64
2018-02-03T00:04:17.042Z,6.75
2018-02-03T00:05:27.088Z,6.73
2018-02-03T00:06:37.137Z,6.72
2018-02-03T00:07:47.214Z,6.73
2018-02-03T00:08:57.255Z,6.72
2018-02-03T00:10:07.358Z,6.75
2018-02-03T00:11:17.144Z,6.79
2018-02-03T00:12:26.926Z,6.68
2018-02-03T00:13:36.984Z,6.79
2018-02-03T00:14:47.047Z,6.72
2018-02-03T00:15:57.097Z,6.78
2018-02-03T00:17:07.145Z,6.73
2018-02-03T00:18:17.189Z,6.86
2018-02-03T00:19:27.221Z,6.85
2018-02-03T00:20:37.254Z,6.82
2018-02-03T00:21:47.306Z,6.83
2018-02-03T00:22:57.082Z,6.86
2018-02-03T00:24:06.890Z,6.86
2018-02-03T00:25:16.931Z,6.97
2018-02-03T00:26:26.712Z,6.95
2018-02-03T00:27:36.822Z,6.94
2018-02-03T00:28:46.860Z,6.91
2018-02-03T00:29:56.635Z,6.97
2018-02-03T00:31:06.152Z,6.95
2018-02-03T00:32:15.962Z,6.93
2018-02-03T00:33:26.011Z,6.98
2018-02-03T00:34:35.805Z,6.83
2018-02-03T00:35:45.601Z,6.9
2018-02-03T00:36:55.647Z,6.83
2018-02-03T00:38:05.685Z,6.82
2018-02-03T00:39:15.720Z,6.82
2018-02-03T00:40:25.507Z,6.88
2018-02-03T00:41:35.549Z,6.82
2018-02-03T00:42:45.602Z,6.88
2018-02-03T00:43:55.383Z,6.8
2018-02-03T00:45:05.436Z,6.82
2018-02-03T00:46:15.484Z,6.78
2018-02-03T00:47:25.524Z,6.8
2018-02-03T00:48:35.575Z,6.85
2018-02-03T00:49:45.359Z,6.8
2018-02-03T00:50:55.147Z,6.85
2018-02-03T00:52:05.196Z,6.85
2018-02-03T00:53:14.724Z,6.82
2018-02-03T00:54:24.774Z,6.82
2018-02-03T00:55:34.824Z,6.8
2018-02-03T00:56:44.880Z,6.8
2018-02-03T00:57:54.924Z,6.78
2018-02-03T00:59:05.131Z,6.8
2018-02-03T01:00:15.171Z,6.75
2018-02-03T01:01:24.967Z,6.78
2018-02-03T01:02:35.012Z,6.78
2018-02-03T01:03:45.069Z,6.73
2018-02-03T01:04:55.096Z,6.79
2018-02-03T01:06:05.153Z,6.78
2018-02-03T01:07:15.198Z,6.91
2018-02-03T01:08:25.304Z,6.78
2018-02-03T01:09:35.368Z,6.79
2018-02-03T01:10:45.156Z,6.78
2018-02-03T01:11:55.210Z,6.82
2018-02-03T01:13:04.998Z,6.79
2018-02-03T01:14:14.530Z,6.8
2018-02-03T01:15:24.583Z,6.86
2018-02-03T01:16:34.405Z,6.86
2018-02-03T01:17:44.435Z,6.82
2018-02-03T01:18:54.489Z,6.8
2018-02-03T01:20:04.543Z,6.94
2018-02-03T01:21:14.597Z,6.82
2018-02-03T01:22:24.651Z,6.85
2018-02-03T01:23:34.704Z,6.82
2018-02-03T01:24:44.497Z,6.94
2018-02-03T01:25:54.336Z,6.8
2018-02-03T01:27:04.128Z,6.95
2018-02-03T01:28:13.930Z,7.03
2018-02-03T01:29:23.724Z,6.97
2018-02-03T01:30:33.768Z,7
2018-02-03T01:31:43.829Z,7.08
2018-02-03T01:32:53.882Z,6.98
2018-02-03T01:34:03.685Z,7
2018-02-03T01:35:13.529Z,6.94
2018-02-03T01:36:23.576Z,6.98
2018-02-03T01:37:33.605Z,7.08
2018-02-03T01:38:43.646Z,7.09
2018-02-03T01:39:53.687Z,7.16
2018-02-03T01:41:03.739Z,7.08
2018-02-03T01:42:13.781Z,7.21
2018-02-03T01:43:23.823Z,7.23
2018-02-03T01:44:33.872Z,7.23
2018-02-03T01:45:43.907Z,7.27
2018-02-03T01:46:53.712Z,7.23
2018-02-03T01:48:03.494Z,7.22
2018-02-03T01:49:13.322Z,7.18
2018-02-03T01:50:23.415Z,7.19
2018-02-03T01:51:33.455Z,7.13
2018-02-03T01:52:43.507Z,7.16
2018-02-03T01:53:53.546Z,7.12
2018-02-03T01:55:03.340Z,7.04
2018-02-03T01:56:12.859Z,7.12
2018-02-03T01:57:22.895Z,7.09
2018-02-03T01:58:32.687Z,7.13
2018-02-03T01:59:42.732Z,7.12
2018-02-03T02:00:52.819Z,7.03
2018-02-03T02:02:02.631Z,7.11
2018-02-03T02:03:12.686Z,7.03
2018-02-03T02:04:22.726Z,7.08
2018-02-03T02:05:32.502Z,7.11
2018-02-03T02:06:42.547Z,7.08
2018-02-03T02:07:52.335Z,7.08
2018-02-03T02:09:02.370Z,7.16
2018-02-03T02:10:12.162Z,7.03
2018-02-03T02:11:22.209Z,7.05
2018-02-03T02:12:32.270Z,7.03
2018-02-03T02:13:42.318Z,7.01
2018-02-03T02:14:52.092Z,7.01
2018-02-03T02:16:02.147Z,7.01
2018-02-03T02:17:12.186Z,6.94
2018-02-03T02:18:22.299Z,7
2018-02-03T02:19:32.473Z,6.98
2018-02-03T02:20:42.244Z,7
2018-02-03T02:21:52.305Z,7.01
2018-02-03T02:23:02.361Z,7.05
2018-02-03T02:24:12.145Z,7.01
2018-02-03T02:25:22.206Z,7.01
2018-02-03T02:26:31.986Z,6.95
2018-02-03T02:27:42.022Z,7.01
2018-02-03T02:28:52.072Z,7.03
2018-02-03T02:30:01.915Z,7.04
2018-02-03T02:31:11.702Z,7.01
2018-02-03T02:32:21.487Z,7.12
2018-02-03T02:33:31.526Z,7.12
2018-02-03T02:34:41.306Z,7.13
2018-02-03T02:35:51.108Z,7.09
2018-02-03T02:37:00.884Z,7.05
2018-02-03T02:38:10.675Z,7.01
2018-02-03T02:39:21.797Z,7.19
2018-02-03T02:40:31.595Z,7.11
2018-02-03T02:41:41.685Z,7.16
2018-02-03T02:42:51.756Z,7.12
2018-02-03T02:44:01.864Z,7.13
2018-02-03T02:45:11.665Z,7.13
2018-02-03T02:46:21.713Z,7.21
2018-02-03T02:47:31.830Z,7.22
2018-02-03T02:48:41.892Z,7.23
2018-02-03T02:49:51.950Z,7.21
2018-02-03T02:51:01.741Z,7.22
2018-02-03T02:52:11.811Z,7.26
2018-02-03T02:53:21.994Z,7.27
2018-02-03T02:54:32.050Z,7.27
2018-02-03T02:55:42.125Z,7.21
2018-02-03T02:56:52.183Z,7.26
2018-02-03T02:58:02.216Z,7.22
2018-02-03T02:59:11.795Z,7.29
2018-02-03T03:00:21.839Z,7.27
2018-02-03T03:01:31.884Z,7.26
2018-02-03T03:02:41.937Z,7.22
2018-02-03T03:34:35.965Z,4.74
2018-02-03T03:35:45.999Z,4.64
2018-02-03T03:36:56.028Z,4.69
2018-02-03T03:38:06.115Z,4.69
2018-02-03T03:39:16.164Z,4.78
2018-02-03T03:40:26.254Z,4.9
2018-02-03T03:41:36.051Z,5.05
2018-02-03T03:42:46.103Z,5.18
2018-02-03T03:43:56.140Z,5.21
2018-02-03T03:45:05.936Z,5.46
2018-02-03T03:46:15.708Z,5.49
2018-02-03T03:47:25.250Z,5.67
2018-02-03T03:48:35.296Z,5.81
2018-02-03T03:49:45.334Z,5.87
2018-02-03T03:50:55.444Z,5.96
2018-02-03T03:52:05.486Z,6.14
2018-02-03T03:53:15.282Z,6.33
2018-02-03T03:54:25.056Z,6.42
2018-02-03T03:55:35.102Z,6.46
2018-02-03T03:56:45.155Z,6.54
2018-02-03T03:57:55.201Z,6.62
2018-02-03T03:59:05.839Z,6.73
2018-02-03T04:00:15.875Z,6.75
2018-02-03T04:01:25.921Z,6.82
2018-02-03T04:02:35.951Z,6.83
2018-02-03T04:03:45.748Z,6.85
2018-02-03T04:04:55.793Z,6.94
2018-02-03T04:06:05.574Z,7.03
2018-02-03T04:07:15.627Z,6.98
2018-02-03T04:08:25.412Z,6.94
2018-02-03T04:09:35.519Z,7.01
2018-02-03T04:10:45.579Z,7.16
2018-02-03T04:11:55.629Z,7.13
2018-02-03T04:13:05.681Z,7.18
2018-02-03T04:14:15.460Z,7.29
2018-02-03T04:15:25.512Z,7.19
2018-02-03T04:16:35.554Z,7.29
2018-02-03T04:17:45.600Z,7.31
2018-02-03T04:18:55.379Z,7.23
2018-02-03T04:20:05.430Z,7.27
2018-02-03T04:21:15.522Z,7.26
2018-02-03T04:22:25.612Z,7.33
2018-02-03T04:23:35.674Z,7.34
2018-02-03T04:24:44.939Z,7.41
2018-02-03T04:25:55.037Z,7.37
2018-02-03T04:27:06.036Z,7.34
2018-02-03T04:28:16.084Z,7.37
2018-02-03T04:29:26.133Z,7.44
2018-02-03T04:30:36.201Z,7.48
2018-02-03T04:31:45.727Z,7.36
2018-02-03T04:32:55.514Z,7.44
2018-02-03T04:34:05.294Z,7.51
2018-02-03T04:35:15.349Z,7.51
2018-02-03T04:36:25.134Z,7.49
2018-02-03T04:37:35.192Z,7.48
2018-02-03T04:38:44.974Z,7.55
2018-02-03T04:39:55.026Z,7.52
2018-02-03T04:41:05.072Z,7.51
2018-02-03T04:42:14.602Z,7.63
2018-02-03T04:43:24.655Z,7.51
2018-02-03T04:44:34.707Z,7.47
2018-02-03T04:45:44.491Z,7.54
2018-02-03T04:46:54.259Z,7.58
2018-02-03T04:48:04.061Z,7.54
2018-02-03T04:49:14.112Z,7.63
2018-02-03T04:50:24.158Z,7.58
2018-02-03T04:51:34.212Z,7.64
2018-02-03T04:52:44.008Z,7.61
2018-02-03T04:53:54.047Z,7.64
2018-02-03T04:55:04.079Z,7.67
2018-02-03T04:56:13.868Z,7.64
2018-02-03T04:57:23.908Z,7.68
2018-02-03T04:58:33.686Z,7.68
2018-02-03T04:59:43.730Z,7.77
2018-02-03T05:00:53.764Z,7.75
2018-02-03T05:02:03.606Z,7.7
2018-02-03T05:03:13.389Z,7.75
2018-02-03T05:04:23.175Z,7.73
2018-02-03T05:05:33.212Z,7.73
2018-02-03T05:06:43.256Z,7.75
2018-02-03T05:07:53.349Z,7.73
2018-02-03T05:09:03.132Z,7.7
2018-02-03T05:10:13.174Z,7.78
2018-02-03T05:11:23.203Z,7.77
2018-02-03T05:12:33.244Z,7.74
2018-02-03T05:13:43.299Z,7.73
2018-02-03T05:14:53.068Z,7.71
2018-02-03T05:16:02.839Z,7.78
2018-02-03T05:17:12.899Z,7.78
2018-02-03T05:18:22.739Z,7.75
2018-02-03T05:19:32.830Z,7.75
2018-02-03T05:20:42.868Z,7.75
2018-02-03T05:21:52.916Z,7.77
2018-02-03T05:23:02.964Z,7.71
2018-02-03T05:24:12.756Z,7.88
2018-02-03T05:25:22.550Z,7.86
2018-02-03T05:26:32.335Z,7.88
2018-02-03T05:27:42.111Z,7.77
2018-02-03T05:28:51.908Z,7.89
2018-02-03T05:30:01.686Z,7.88
2018-02-03T05:31:11.850Z,7.85
2018-02-03T05:32:21.633Z,7.91
2018-02-03T05:33:31.673Z,7.8
2018-02-03T05:34:41.721Z,7.78
2018-02-03T05:35:51.789Z,7.77
2018-02-03T05:37:01.839Z,7.78
2018-02-03T05:38:11.941Z,7.74
2018-02-03T05:39:21.998Z,7.71
2018-02-03T05:40:32.057Z,7.61
2018-02-03T05:41:42.112Z,7.7
2018-02-03T05:42:52.176Z,7.67
2018-02-03T05:44:02.212Z,7.58
2018-02-03T05:45:12.257Z,7.56
2018-02-03T05:46:22.309Z,7.68
2018-02-03T05:47:32.367Z,7.63
2018-02-03T05:48:42.214Z,7.68
2018-02-03T05:49:52.284Z,7.74
2018-02-03T05:51:02.360Z,7.67
2018-02-03T05:52:12.469Z,7.73
2018-02-03T05:53:22.256Z,7.55
2018-02-03T05:54:32.303Z,7.67
2018-02-03T05:55:42.354Z,7.59
2018-02-03T05:56:52.410Z,7.59
2018-02-03T05:58:02.194Z,7.61
2018-02-03T05:59:12.283Z,7.61
2018-02-03T06:00:22.114Z,7.63
2018-02-03T06:01:32.165Z,7.59
2018-02-03T06:02:41.950Z,7.73
2018-02-03T06:03:51.715Z,7.71
2018-02-03T06:05:01.233Z,7.68
2018-02-03T06:06:11.001Z,7.64
2018-02-03T06:07:20.791Z,7.59
2018-02-03T06:08:30.832Z,7.63
2018-02-03T06:09:40.616Z,7.68
2018-02-03T06:10:50.720Z,7.55
2018-02-03T06:12:00.508Z,7.48
2018-02-03T06:13:10.579Z,7.41
2018-02-03T06:14:20.638Z,7.39
2018-02-03T06:15:30.680Z,7.29
2018-02-03T06:16:40.730Z,7.16
2018-02-03T06:17:50.517Z,7.21
2018-02-03T06:19:00.344Z,7.12
2018-02-03T06:20:10.380Z,7.18
2018-02-03T06:21:20.177Z,7.18
2018-02-03T06:22:29.963Z,7.11
2018-02-03T06:23:40.002Z,7.01
2018-02-03T06:24:50.049Z,7
2018-02-03T06:25:59.834Z,7
2018-02-03T06:27:09.885Z,6.91
2018-02-03T06:28:19.943Z,6.98
2018-02-03T06:29:30.049Z,6.97
2018-02-03T06:30:39.845Z,6.9
2018-02-03T06:31:50.033Z,6.97
2018-02-03T06:32:59.884Z,7
2018-02-03T06:34:09.666Z,6.97
2018-02-03T06:35:19.483Z,6.95
2018-02-03T06:36:29.554Z,6.94
2018-02-03T06:37:39.356Z,7
2018-02-03T06:38:49.158Z,7.01
2018-02-03T06:39:59.205Z,7.08
2018-02-03T06:41:09.266Z,7.16
2018-02-03T06:42:19.315Z,7.08
2018-02-03T06:43:29.351Z,7.13
2018-02-03T06:44:39.140Z,7.13
2018-02-03T06:45:49.192Z,7.15
2018-02-03T06:46:59.244Z,7.08
2018-02-03T06:48:09.296Z,7.19
2018-02-03T06:49:19.357Z,7.23
2018-02-03T06:50:29.393Z,7.21
2018-02-03T06:51:39.457Z,7.26
2018-02-03T06:52:48.771Z,7.34
2018-02-03T06:53:58.821Z,7.36
2018-02-03T06:55:08.349Z,7.51
2018-02-03T06:56:18.382Z,7.48
2018-02-03T06:57:28.423Z,7.49
2018-02-03T06:58:38.272Z,7.55
2018-02-03T06:59:48.330Z,7.54
2018-02-03T07:00:58.201Z,7.51
2018-02-03T07:02:07.998Z,7.52
2018-02-03T07:03:18.040Z,7.54
2018-02-03T07:04:28.133Z,7.49
2018-02-03T07:05:38.182Z,7.68
2018-02-03T07:06:48.225Z,7.61
2018-02-03T07:07:58.273Z,7.64
2018-02-03T07:09:08.315Z,7.71
2018-02-03T07:10:18.405Z,7.78
2018-02-03T07:11:28.441Z,7.77
2018-02-03T07:12:38.475Z,7.82
2018-02-03T07:13:48.247Z,7.78
2018-02-03T07:14:58.306Z,7.93
2018-02-03T07:16:08.397Z,7.96
2018-02-03T07:17:17.926Z,7.92
2018-02-03T07:18:27.721Z,7.96
2018-02-03T07:19:37.510Z,8.06
2018-02-03T07:20:47.302Z,8.09
2018-02-03T07:21:57.351Z,8.07
2018-02-03T07:23:07.136Z,8.21
2018-02-03T07:24:16.931Z,8.22
2018-02-03T07:25:26.728Z,8.19
2018-02-03T07:26:36.790Z,8.32
2018-02-03T07:27:46.882Z,8.32
2018-02-03T07:28:56.664Z,8.36
2018-02-03T07:30:06.725Z,8.44
2018-02-03T07:31:16.530Z,8.4
2018-02-03T07:32:26.595Z,8.49
2018-02-03T07:33:36.693Z,8.44
2018-02-03T07:34:46.738Z,8.58
2018-02-03T07:35:56.530Z,8.47
2018-02-03T07:37:06.596Z,8.46
2018-02-03T07:38:16.642Z,8.49
2018-02-03T07:39:26.468Z,8.6
2018-02-03T07:40:36.674Z,8.57
2018-02-03T07:41:46.450Z,8.58
2018-02-03T07:42:56.506Z,8.6
2018-02-03T07:44:06.296Z,8.57
2018-02-03T07:45:16.398Z,8.6
2018-02-03T07:46:26.172Z,8.58
2018-02-03T07:47:35.946Z,8.6
2018-02-03T07:48:46.004Z,8.57
2018-02-03T07:49:55.785Z,8.58
2018-02-03T07:51:05.886Z,8.58
2018-02-03T07:52:15.949Z,8.6
2018-02-03T07:53:26.006Z,8.71
2018-02-03T07:54:36.058Z,8.6
2018-02-03T07:55:45.856Z,8.6
2018-02-03T07:56:55.711Z,8.65
2018-02-03T07:58:05.492Z,8.61
2018-02-03T07:59:15.284Z,8.64
2018-02-03T08:00:25.072Z,8.62
2018-02-03T08:01:35.113Z,8.61
2018-02-03T08:02:45.169Z,8.61
2018-02-03T08:03:55.211Z,8.64
2018-02-03T08:05:04.991Z,8.69
2018-02-03T08:06:14.767Z,8.67
2018-02-03T08:07:24.583Z,8.64
2018-02-03T08:08:34.383Z,8.74
2018-02-03T08:09:44.189Z,8.77
2018-02-03T08:10:54.227Z,8.8
2018-02-03T08:12:04.011Z,8.82
2018-02-03T08:13:14.075Z,8.76
2018-02-03T08:14:23.931Z,8.87
2018-02-03T08:15:34.013Z,8.95
2018-02-03T08:16:43.541Z,8.94
2018-02-03T08:17:53.602Z,9.05
2018-02-03T08:19:03.662Z,9.01
2018-02-03T08:20:13.711Z,8.9
2018-02-03T08:21:23.760Z,8.92
2018-02-03T08:22:33.305Z,8.98
2018-02-03T08:23:43.381Z,8.98
2018-02-03T08:24:52.905Z,8.97
2018-02-03T08:26:02.960Z,8.94
2018-02-03T08:27:13.013Z,8.92
2018-02-03T08:28:23.054Z,8.9
2018-02-03T08:29:33.120Z,8.92
2018-02-03T08:30:42.904Z,9
2018-02-03T08:31:52.692Z,9.04
2018-02-03T08:33:02.772Z,9.16
2018-02-03T08:34:12.810Z,9.09
2018-02-03T08:35:22.854Z,9.2
2018-02-03T08:36:32.630Z,9.17
2018-02-03T08:37:42.734Z,9.21
2018-02-03T08:38:53.001Z,9.35
2018-02-03T08:40:03.044Z,9.42
2018-02-03T08:41:13.104Z,9.59
2018-02-03T08:42:23.161Z,9.64
2018-02-03T08:43:33.282Z,9.64
2018-02-03T08:44:43.315Z,9.64
2018-02-03T08:45:53.365Z,9.75
2018-02-03T08:47:03.166Z,9.82
2018-02-03T08:48:13.219Z,9.84
2018-02-03T08:49:23.276Z,9.85
2018-02-03T08:50:33.393Z,9.85
2018-02-03T08:51:43.196Z,9.84
2018-02-03T08:52:52.975Z,9.92
2018-02-03T08:54:03.040Z,9.98
2018-02-03T08:55:13.079Z,10.02
2018-02-03T08:56:23.131Z,10.13
2018-02-03T08:57:33.186Z,10.15
2018-02-03T08:58:43.234Z,10.17
2018-02-03T08:59:53.292Z,10.14
2018-02-03T09:01:03.088Z,10.18
2018-02-03T09:02:13.158Z,10.17
2018-02-03T09:03:22.955Z,10.11
2018-02-03T09:04:33.013Z,10.15
2018-02-03T09:05:42.814Z,10.1
2018-02-03T09:06:52.653Z,10.2
2018-02-03T09:08:02.764Z,10.25
2018-02-03T09:09:12.828Z,10.21
2018-02-03T09:10:22.867Z,10.14
2018-02-03T09:11:32.923Z,10.28
2018-02-03T09:12:42.981Z,10.33
2018-02-03T09:13:52.760Z,10.25
2018-02-03T09:15:02.828Z,10.32
2018-02-03T09:16:12.893Z,10.31
2018-02-03T09:17:22.951Z,10.28
2018-02-03T09:18:32.475Z,10.33
2018-02-03T09:19:42.517Z,10.36
2018-02-03T09:20:52.568Z,10.36
2018-02-03T09:22:02.372Z,10.44
2018-02-03T09:23:12.427Z,10.44
2018-02-03T09:24:22.543Z,10.38
2018-02-03T09:25:32.667Z,10.47
2018-02-03T09:26:42.708Z,10.41
2018-02-03T09:27:52.754Z,10.51
2018-02-03T09:29:02.796Z,10.44
2018-02-03T09:30:12.587Z,10.42
2018-02-03T09:31:22.623Z,10.46
2018-02-03T09:32:32.702Z,10.38
2018-02-03T09:33:42.758Z,10.33
2018-02-03T09:34:52.552Z,10.31
2018-02-03T09:36:02.612Z,10.38
2018-02-03T09:37:12.403Z,10.41
2018-02-03T09:38:22.455Z,10.35
2018-02-03T09:39:32.247Z,10.18
2018-02-03T09:40:42.299Z,10.21
2018-02-03T09:41:52.087Z,10.11
2018-02-03T09:43:02.143Z,10.15
2018-02-03T09:44:11.986Z,10.15
2018-02-03T09:45:22.063Z,10.15
2018-02-03T09:46:32.117Z,10.21
2018-02-03T09:47:42.165Z,10.17
2018-02-03T09:48:51.961Z,10.32
2018-02-03T09:50:02.021Z,10.28
2018-02-03T09:51:11.807Z,10.31
2018-02-03T09:52:21.863Z,10.41
2018-02-03T09:53:31.939Z,10.31
2018-02-03T09:54:42.005Z,10.31
2018-02-03T09:55:52.050Z,10.18
2018-02-03T09:57:02.105Z,10.23
2018-02-03T09:58:12.157Z,10.15
2018-02-03T09:59:22.221Z,10.23
2018-02-03T10:00:32.006Z,10.2
2018-02-03T10:01:42.050Z,10.14
2018-02-03T10:02:52.177Z,10.14
2018-02-03T10:04:02.238Z,10.08
2018-02-03T10:05:12.038Z,9.95
2018-02-03T10:06:21.838Z,10.02
2018-02-03T10:07:31.626Z,10.05
2018-02-03T10:08:41.407Z,10.08
2018-02-03T10:09:51.207Z,10.05
2018-02-03T10:11:01.250Z,10.02
2018-02-03T10:12:11.045Z,10.14
2018-02-03T10:13:21.109Z,10.05
2018-02-03T10:14:31.173Z,10.07
2018-02-03T10:15:41.226Z,9.95
2018-02-03T10:16:51.289Z,10.02
2018-02-03T10:18:01.092Z,10.02
2018-02-03T10:19:11.191Z,9.95
2018-02-03T10:20:21.264Z,10.08
2018-02-03T10:21:31.338Z,10.02
2018-02-03T10:22:41.191Z,10.11
2018-02-03T10:23:50.978Z,10.15
2018-02-03T10:25:00.790Z,10.21
2018-02-03T10:26:10.846Z,10.23
2018-02-03T10:27:20.907Z,10.26
2018-02-03T10:28:31.005Z,10.18
2018-02-03T10:29:40.795Z,10.1
2018-02-03T10:30:50.825Z,10.21
2018-02-03T10:32:00.876Z,10.14
2018-02-03T10:33:11.024Z,10.15
2018-02-03T10:34:20.820Z,10.08
2018-02-03T10:35:30.599Z,10.05
2018-02-03T10:36:40.657Z,9.98
2018-02-03T10:37:50.229Z,9.96
2018-02-03T10:39:00.307Z,9.93
2018-02-03T10:40:10.403Z,9.84
2018-02-03T10:41:20.440Z,9.85
2018-02-03T10:42:30.238Z,9.9
2018-02-03T10:43:40.349Z,9.82
2018-02-03T10:44:50.382Z,9.81
2018-02-03T10:46:00.432Z,9.92
2018-02-03T10:47:10.474Z,9.85
2018-02-03T10:48:20.530Z,9.85
2018-02-03T10:49:30.588Z,9.82
2018-02-03T10:50:40.654Z,9.92
2018-02-03T10:51:50.704Z,9.8
2018-02-03T10:53:00.228Z,9.93
2018-02-03T10:54:10.265Z,9.95
2018-02-03T10:55:20.058Z,10
2018-02-03T10:56:30.111Z,9.96
2018-02-03T10:57:40.219Z,9.89
2018-02-03T10:58:50.025Z,9.96
2018-02-03T10:59:59.827Z,9.9
2018-02-03T11:01:09.864Z,9.85
2018-02-03T11:02:19.385Z,9.92
2018-02-03T11:03:29.178Z,9.84
2018-02-03T11:04:39.236Z,9.81
2018-02-03T11:05:49.284Z,9.88
2018-02-03T11:06:59.340Z,9.82
2018-02-03T11:08:09.146Z,9.81
2018-02-03T11:09:19.220Z,9.75
2018-02-03T11:10:29.278Z,9.71
2018-02-03T11:11:39.317Z,9.74
2018-02-03T11:12:48.588Z,9.63
2018-02-03T11:13:58.652Z,9.67
2018-02-03T11:15:08.762Z,9.64
2018-02-03T11:16:18.866Z,9.63
2018-02-03T11:17:28.653Z,9.64
2018-02-03T11:18:38.709Z,9.62
2018-02-03T11:19:48.507Z,9.62
2018-02-03T11:20:58.667Z,9.63
2018-02-03T11:22:08.454Z,9.63
2018-02-03T11:23:18.519Z,9.72
2018-02-03T11:24:29.361Z,9.8
2018-02-03T11:25:39.430Z,9.8
2018-02-03T11:26:49.262Z,9.82
2018-02-03T11:27:59.310Z,9.88
2018-02-03T11:29:09.359Z,9.85
2018-02-03T11:30:19.413Z,9.84
2018-02-03T11:31:29.482Z,9.88
2018-02-03T11:32:39.293Z,9.88
2018-02-03T11:33:49.410Z,9.92
2018-02-03T11:34:59.215Z,9.98
2018-02-03T11:36:08.768Z,9.93
2018-02-03T11:37:18.814Z,9.93
2018-02-03T11:38:28.600Z,9.84
2018-02-03T11:39:38.652Z,9.96
2018-02-03T11:40:48.695Z,9.96
2018-02-03T11:41:58.741Z,9.95
2018-02-03T11:43:08.808Z,9.95
2018-02-03T11:44:18.867Z,9.99
2018-02-03T11:45:28.672Z,10.14
2018-02-03T11:46:38.743Z,10.1
2018-02-03T11:47:48.856Z,10.14
2018-02-03T11:48:58.929Z,10.02
2018-02-03T11:50:08.729Z,10.1
2018-02-03T11:51:18.540Z,10.02
2018-02-03T11:52:28.317Z,9.95
2018-02-03T11:53:38.115Z,9.96
2018-02-03T11:54:47.965Z,10.03
2018-02-03T11:55:58.042Z,9.93
2018-02-03T11:57:08.099Z,9.95
2018-02-03T11:58:17.910Z,9.96
2018-02-03T11:59:27.687Z,9.85
2018-02-03T12:00:37.748Z,9.9
2018-02-03T12:01:47.287Z,9.95
2018-02-03T12:02:57.359Z,9.96
2018-02-03T12:04:07.174Z,9.98
2018-02-03T12:05:17.236Z,9.96
2018-02-03T12:06:27.029Z,9.92
2018-02-03T12:07:36.815Z,9.84
2018-02-03T12:08:46.894Z,9.81
2018-02-03T12:09:56.687Z,9.81
2018-02-03T12:11:06.479Z,9.88
2018-02-03T12:12:16.574Z,9.74
2018-02-03T12:13:26.616Z,9.74
2018-02-03T12:14:36.683Z,9.75
2018-02-03T12:15:46.747Z,9.78
2018-02-03T12:16:56.543Z,9.78
2018-02-03T12:18:06.596Z,9.7
2018-02-03T12:19:16.662Z,9.7
2018-02-03T12:20:26.719Z,9.6
2018-02-03T12:21:36.770Z,9.62
2018-02-03T12:22:46.828Z,9.63
2018-02-03T12:23:56.885Z,9.71
2018-02-03T12:25:06.421Z,9.6
2018-02-03T12:26:16.481Z,9.64
2018-02-03T12:27:26.564Z,9.63
2018-02-03T12:28:36.606Z,9.66
2018-02-03T12:29:46.658Z,9.72
2018-02-03T12:30:56.724Z,9.67
2018-02-03T12:32:06.789Z,9.8
2018-02-03T12:33:16.581Z,9.81
2018-02-03T12:34:26.629Z,9.82
2018-02-03T12:35:36.702Z,9.72
2018-02-03T12:36:46.766Z,9.8
2018-02-03T12:37:56.561Z,9.71
2018-02-03T12:39:06.618Z,9.64
2018-02-03T12:40:16.688Z,9.72
2018-02-03T12:41:26.740Z,9.71
2018-02-03T12:42:36.784Z,9.62
2018-02-03T12:43:47.271Z,9.66
2018-02-03T12:44:57.340Z,9.7
2018-02-03T12:46:07.394Z,9.64
2018-02-03T12:47:17.456Z,9.63
2018-02-03T12:48:27.542Z,9.64
2018-02-03T12:49:37.591Z,9.67
2018-02-03T12:50:47.399Z,9.64
2018-02-03T12:51:57.461Z,9.64
2018-02-03T12:53:07.554Z,9.64
2018-02-03T12:54:17.091Z,9.72
2018-02-03T12:55:27.167Z,9.71
2018-02-03T12:56:37.027Z,9.72
2018-02-03T12:57:47.076Z,9.66
2018-02-03T12:58:56.867Z,9.63
2018-02-03T13:00:06.674Z,9.63
2018-02-03T13:01:16.452Z,9.7
2018-02-03T13:02:26.496Z,9.62
2018-02-03T13:03:36.549Z,9.63
2018-02-03T13:04:46.659Z,9.52
2018-02-03T13:05:56.454Z,9.59
2018-02-03T13:07:06.236Z,9.59
2018-02-03T13:08:16.034Z,9.57
2018-02-03T13:09:26.091Z,9.55
2018-02-03T13:10:36.144Z,9.52
2018-02-03T13:11:46.201Z,9.55
2018-02-03T13:12:56.249Z,9.44
2018-02-03T13:14:06.295Z,9.39
2018-02-03T13:15:16.071Z,9.45
2018-02-03T13:16:26.669Z,9.35
2018-02-03T13:17:36.743Z,9.27
2018-02-03T13:18:46.573Z,9.23
2018-02-03T13:19:56.429Z,9.24
2018-02-03T13:21:06.485Z,9.23
2018-02-03T13:22:16.550Z,9.32
2018-02-03T13:23:26.610Z,9.27
2018-02-03T13:24:36.411Z,9.34
2018-02-03T13:25:45.990Z,9.29
2018-02-03T13:26:56.165Z,9.34
2018-02-03T13:28:05.945Z,9.32
2018-02-03T13:29:15.738Z,9.39
2018-02-03T13:30:25.822Z,9.3
2018-02-03T13:31:35.873Z,9.34
2018-02-03T13:32:45.407Z,9.27
2018-02-03T13:33:55.469Z,9.26
2018-02-03T13:35:05.262Z,9.24
2018-02-03T13:36:15.329Z,9.3
2018-02-03T13:37:25.128Z,9.3
2018-02-03T13:38:34.916Z,9.32
2018-02-03T13:39:44.954Z,9.27
2018-02-03T13:40:55.076Z,9.24
2018-02-03T13:42:04.903Z,9.29
2018-02-03T13:43:14.710Z,9.19
2018-02-03T13:44:24.778Z,9.23
2018-02-03T13:45:34.896Z,9.2
2018-02-03T13:46:44.943Z,9.2
2018-02-03T13:47:55.016Z,9.14
2018-02-03T13:49:05.059Z,9.17
2018-02-03T13:50:15.111Z,9.17
2018-02-03T13:51:25.163Z,9.16
2018-02-03T13:52:35.224Z,9.16
2018-02-03T13:53:45.280Z,9.12
2018-02-03T13:54:54.821Z,9.11
2018-02-03T13:56:04.618Z,9.16
2018-02-03T13:57:14.402Z,9.08
2018-02-03T13:58:24.511Z,9.17
2018-02-03T13:59:34.669Z,9.14
2018-02-03T14:00:44.470Z,9.05
2018-02-03T14:01:54.267Z,9.08
2018-02-03T14:03:03.539Z,9.16
2018-02-03T14:04:13.592Z,9.08
2018-02-03T14:05:23.391Z,9.04
2018-02-03T14:06:33.257Z,9.01
2018-02-03T14:07:43.301Z,9.04
2018-02-03T14:08:53.089Z,8.9
2018-02-03T14:10:03.165Z,8.98
2018-02-03T14:11:13.228Z,8.97
2018-02-03T14:12:23.273Z,8.92
2018-02-03T14:13:33.096Z,8.9
2018-02-03T14:14:42.642Z,8.97
2018-02-03T14:15:52.690Z,8.92
2018-02-03T14:17:02.481Z,9.01
2018-02-03T14:18:12.540Z,8.95
2018-02-03T14:19:22.606Z,8.98
2018-02-03T14:20:32.684Z,8.95
2018-02-03T14:21:42.742Z,8.89
2018-02-03T14:22:52.794Z,8.83
2018-02-03T14:24:02.934Z,8.92
2018-02-03T14:25:12.718Z,8.83
2018-02-03T14:26:22.524Z,8.8
2018-02-03T14:27:32.594Z,8.8
2018-02-03T14:28:42.408Z,8.83
2018-02-03T14:29:52.522Z,8.8
2018-02-03T14:31:02.626Z,8.86
2018-02-03T14:32:12.663Z,8.87
2018-02-03T14:33:22.699Z,8.85
2018-02-03T14:34:32.771Z,8.9
2018-02-03T14:35:42.855Z,8.83
2018-02-03T14:36:52.896Z,8.85
2018-02-03T14:38:02.944Z,8.83
2018-02-03T14:39:12.998Z,8.77
2018-02-03T14:40:23.069Z,8.77
2018-02-03T14:41:33.127Z,8.77
2018-02-03T14:42:42.911Z,8.8
2018-02-03T14:43:52.711Z,8.76
2018-02-03T14:45:02.763Z,8.71
2018-02-03T14:46:12.349Z,8.77
2018-02-03T14:47:22.423Z,8.8
2018-02-03T14:48:32.479Z,8.71
2018-02-03T14:49:42.288Z,8.72
2018-02-03T14:50:52.103Z,8.77
2018-02-03T14:52:02.163Z,8.72
2018-02-03T14:53:12.222Z,8.65
2018-02-03T14:54:22.277Z,8.72
2018-02-03T14:55:32.339Z,8.76
2018-02-03T14:56:42.399Z,8.71
2018-02-03T14:57:52.455Z,8.69
2018-02-03T14:59:02.526Z,8.65
2018-02-03T15:00:12.599Z,8.61
2018-02-03T15:01:22.399Z,8.57
2018-02-03T15:02:32.233Z,8.58
2018-02-03T15:03:41.771Z,8.6
2018-02-03T15:04:51.593Z,8.61
2018-02-03T15:06:01.397Z,8.62
2018-02-03T15:07:11.485Z,8.54
2018-02-03T15:08:21.551Z,8.64
2018-02-03T15:09:31.662Z,8.64
2018-02-03T15:10:41.448Z,8.57
2018-02-03T15:11:51.498Z,8.46
2018-02-03T15:13:01.580Z,8.44
2018-02-03T15:14:11.625Z,8.42
2018-02-03T15:15:21.696Z,8.44
2018-02-03T15:16:31.771Z,8.53
2018-02-03T15:17:41.861Z,8.44
2018-02-03T15:18:51.976Z,8.49
2018-02-03T15:20:02.033Z,8.46
2018-02-03T15:21:11.844Z,8.52
2018-02-03T15:22:21.670Z,8.46
2018-02-03T15:23:31.751Z,8.31
2018-02-03T15:24:41.856Z,8.44
2018-02-03T15:25:51.919Z,8.31
2018-02-03T15:27:01.789Z,8.35
2018-02-03T15:28:11.847Z,8.19
2018-02-03T15:29:21.894Z,8.24
2018-02-03T15:30:31.676Z,8.21
2018-02-03T15:31:41.745Z,8.17
2018-02-03T15:32:51.809Z,8.14
2018-02-03T15:34:01.847Z,8.14
2018-02-03T15:35:11.919Z,8.17
2018-02-03T15:36:21.990Z,8.19
2018-02-03T15:37:32.066Z,8.16
2018-02-03T15:38:42.141Z,8.1
2018-02-03T15:39:51.935Z,8.16
2018-02-03T15:41:01.734Z,8.13
2018-02-03T15:42:11.917Z,8.14
2018-02-03T15:43:22.004Z,8.1
2018-02-03T15:44:32.129Z,8.11
2018-02-03T15:45:42.232Z,8.09
2018-02-03T15:46:52.313Z,8.11
2018-02-03T15:48:02.417Z,8.11
2018-02-03T15:49:12.478Z,8.07
2018-02-03T15:50:22.539Z,8.11
2018-02-03T15:51:32.330Z,8.13
2018-02-03T15:52:42.409Z,8.04
2018-02-03T15:53:52.196Z,8.11
2018-02-03T15:55:01.981Z,8.1
2018-02-03T15:56:12.028Z,7.96
2018-02-03T15:57:22.115Z,8.03
2018-02-03T15:58:32.153Z,8.01
2018-02-03T15:59:41.980Z,8.09
2018-02-03T16:00:52.211Z,8.03
2018-02-03T16:02:02.304Z,8.04